Latest Weather Observations for Ceduna

IDS60801

Issued at 6:01 pm CDT Tuesday 21 February 2017 (issued every 30 minutes, with the page automatically refreshed every 10 minutes)

About weather observations | Map of weather stations | Latest weather observations for SA | Other Formats
Station Details ID: 018012 Name: CEDUNA AMO Lat: -32.13 Lon: 133.70 Height: 15.3 m
Data from the previous 72 hours. | See also: Recent months at Ceduna
Date/Time
CDT
Temp
°C
App
Temp
°C
Dew
Point
°C
Rel
Hum
%
Delta-T
°C
Wind Press
QNH
hPa
Press
MSL
hPa
Rain since
9am
mm
Dir  Spd
km/h
Gust
km/h
Spd
kts
Gust
kts
21/06:00pm 35.1 27.8 2.6 13 16.8 NNE 30 39 16 21 1006.8 1006.7 0.0
21/05:39pm 35.5 28.3 2.9 13 17.0 N 30 48 16 26 1007.0 1006.9 0.0
21/05:30pm 35.6 28.4 3.0 13 17.0 N 30 44 16 24 1007.0 1006.9 0.0
21/05:06pm 35.7 28.9 3.0 13 17.0 N 28 54 15 29 1007.1 1007.0 0.0
21/05:00pm 35.7 28.9 3.0 13 17.0 N 28 39 15 21 1007.3 1007.2 0.0
21/04:30pm 35.2 28.3 2.6 13 16.8 N 28 41 15 22 1007.8 1007.7 0.0
21/04:00pm 35.6 28.8 3.0 13 17.0 NNE 28 41 15 22 1008.1 1008.0 0.0
21/03:43pm 35.5 28.7 2.9 13 16.9 N 28 50 15 27 1008.6 1008.5 0.0
21/03:30pm 35.6 28.6 4.0 14 16.7 NNE 30 43 16 23 1008.9 1008.8 0.0
21/03:00pm 35.4 29.7 4.8 15 16.4 N 24 37 13 20 1009.6 1009.5 0.0
21/02:30pm 34.0 28.4 3.7 15 15.8 N 22 41 12 22 1010.2 1010.1 0.0
21/02:00pm 33.3 26.5 3.2 15 15.5 N 28 37 15 20 1010.9 1010.8 0.0
21/01:30pm 33.2 26.6 4.0 16 15.2 N 28 41 15 22 1011.4 1011.3 0.0
21/01:01pm 33.2 26.5 5.7 18 14.7 N 30 48 16 26 1012.1 1012.0 0.0
21/01:00pm 32.7 25.4 4.5 17 14.8 N 32 48 17 26 1012.1 1012.0 0.0
21/12:58pm 33.5 26.9 5.9 18 14.9 N 30 48 16 26 1012.1 1012.0 0.0
21/12:30pm 31.9 24.4 4.6 18 14.3 N 33 43 18 23 1012.6 1012.5 0.0
21/12:00pm 31.3 24.1 5.7 20 13.6 N 33 48 18 26 1013.1 1013.0 0.0
21/11:30am 30.2 22.5 5.5 21 13.0 NNE 35 44 19 24 1013.5 1013.4 0.0
21/11:00am 28.8 21.3 6.2 24 11.9 N 35 44 19 24 1013.9 1013.8 0.0
21/10:30am 27.6 20.5 6.4 26 11.1 N 33 43 18 23 1014.2 1014.1 0.0
21/10:00am 26.3 20.4 7.4 30 10.0 NNE 28 37 15 20 1014.5 1014.4 0.0
21/09:30am 23.7 18.4 8.6 38 8.1 NE 26 33 14 18 1014.8 1014.7 0.0
21/09:00am 20.8 16.4 9.1 47 6.2 NE 22 28 12 15 1015.0 1014.9 0.0
21/08:30am 17.7 14.4 9.6 59 4.3 NE 17 22 9 12 1015.0 1014.9 0.0
21/08:00am 15.4 12.1 9.5 68 3.1 NE 17 20 9 11 1014.8 1014.7 0.0
21/07:30am 12.6 9.2 9.1 79 1.8 NE 17 19 9 10 1014.6 1014.5 0.0
21/07:00am 11.8 9.1 9.0 83 1.4 ENE 13 15 7 8 1014.4 1014.3 0.0
21/06:30am 11.9 9.2 9.1 83 1.4 NE 13 17 7 9 1014.2 1014.1 0.0
21/06:00am 11.9 8.5 9.1 83 1.4 NE 17 20 9 11 1014.0 1013.9 0.0
21/05:30am 12.5 8.8 9.5 82 1.5 ENE 19 22 10 12 1013.9 1013.8 0.0
21/05:00am 12.1 8.8 9.7 85 1.2 ENE 17 19 9 10 1013.9 1013.8 0.0
21/04:30am 12.3 9.4 9.7 84 1.3 ENE 15 17 8 9 1013.9 1013.8 0.0
21/04:00am 12.3 9.5 10.0 86 1.2 ENE 15 19 8 10 1013.8 1013.7 0.0
21/03:30am 10.7 8.4 9.1 90 0.8 E 11 13 6 7 1014.3 1014.2 0.0
21/03:00am 11.0 9.1 9.1 88 0.9 ENE 9 13 5 7 1014.8 1014.7 0.0
21/02:30am 11.3 9.4 9.2 87 1.0 ENE 9 13 5 7 1015.4 1015.3 0.0
21/02:00am 12.0 10.2 9.6 85 1.2 ENE 9 13 5 7 1015.8 1015.7 0.0
21/01:30am 12.6 10.2 10.0 84 1.3 E 13 13 7 7 1016.1 1016.0 0.0
21/01:00am 13.3 11.7 10.3 82 1.6 ESE 9 9 5 5 1016.4 1016.3 0.0
21/12:30am 13.6 12.5 10.6 82 1.6 ENE 7 9 4 5 1016.6 1016.5 0.0
21/12:00am 14.2 12.9 11.4 83 1.5 E 9 9 5 5 1016.8 1016.7 0.0
 
Date/Time
CDT
Temp
°C
App
Temp
°C
Dew
Point
°C
Rel
Hum
%
Delta-T
°C
Wind Press
QNH
hPa
Press
MSL
hPa
Rain since
9am
mm
Dir  Spd
km/h
Gust
km/h
Spd
kts
Gust
kts
20/11:30pm 15.1 13.9 11.5 79 1.9 ESE 9 13 5 7 1017.0 1016.9 0.0
20/11:00pm 16.5 13.9 12.1 75 2.4 SE 17 22 9 12 1017.1 1017.0 0.0
20/10:30pm 15.7 14.2 11.9 78 2.1 ESE 11 15 6 8 1017.1 1017.0 0.0
20/10:00pm 16.7 14.6 12.3 75 2.4 SE 15 19 8 10 1016.9 1016.8 0.0
20/09:30pm 17.1 14.5 12.0 72 2.8 SE 17 24 9 13 1016.7 1016.6 0.0
20/09:00pm 17.4 14.3 11.7 69 3.1 SSE 19 24 10 13 1016.3 1016.2 0.0
20/08:30pm 17.9 14.6 11.5 66 3.5 SSE 20 26 11 14 1016.4 1016.3 0.0
20/08:00pm 18.5 14.7 12.3 67 3.4 SSE 24 32 13 17 1016.2 1016.1 0.0
20/07:30pm 19.0 14.3 12.0 64 3.9 SSE 28 37 15 20 1016.0 1015.9 0.0
20/07:00pm 19.6 14.9 12.1 62 4.2 S 28 35 15 19 1015.9 1015.8 0.0
20/06:30pm 20.1 15.3 11.8 59 4.6 S 28 35 15 19 1016.0 1015.9 0.0
20/06:00pm 20.9 16.2 12.1 57 4.9 S 28 35 15 19 1015.9 1015.8 0.0
20/05:30pm 21.4 16.8 11.1 52 5.7 S 26 33 14 18 1015.7 1015.6 0.0
20/05:00pm 20.9 16.1 10.4 51 5.7 S 26 35 14 19 1015.7 1015.6 0.0
20/04:30pm 21.6 17.2 10.4 49 6.1 S 24 32 13 17 1016.0 1015.9 0.0
20/04:00pm 21.6 17.2 10.4 49 6.1 S 24 32 13 17 1016.1 1016.0 0.0
20/03:30pm 21.5 16.7 10.3 49 6.1 S 26 33 14 18 1016.4 1016.3 0.0
20/03:00pm 22.3 17.6 10.8 48 6.3 SSW 26 32 14 17 1016.8 1016.7 0.0
20/02:30pm 21.1 15.8 10.0 49 6.0 SW 28 33 15 18 1017.2 1017.1 0.0
20/02:00pm 21.5 17.2 10.6 50 6.0 SW 24 32 13 17 1017.3 1017.2 0.0
20/01:30pm 20.7 16.2 9.9 50 5.8 SW 24 32 13 17 1017.6 1017.5 0.0
20/01:00pm 21.5 17.9 10.6 50 6.0 WSW 20 26 11 14 1017.8 1017.7 0.0
20/12:30pm 20.6 16.9 10.1 51 5.7 SW 20 28 11 15 1018.1 1018.0 0.0
20/12:00pm 19.6 16.0 10.0 54 5.1 SW 19 26 10 14 1018.5 1018.4 0.0
20/11:30am 19.7 17.7 8.7 49 5.7 E 9 17 5 9 1018.9 1018.8 0.0
20/11:00am 20.3 19.2 9.8 51 5.6 SE 6 17 3 9 1019.1 1019.0 0.0
20/10:30am 20.0 17.8 9.3 50 5.7 SE 11 15 6 8 1019.6 1019.5 0.0
20/10:00am 19.0 17.1 9.2 53 5.2 NE 9 15 5 8 1019.8 1019.7 0.0
20/09:30am 17.8 15.6 9.4 58 4.4 NE 11 15 6 8 1019.8 1019.7 0.0
20/09:00am 16.6 15.6 11.1 70 2.9 NNW 7 9 4 5 1019.8 1019.7 0.0
20/08:30am 16.2 15.5 11.4 73 2.6 NNE 6 7 3 4 1019.7 1019.6 0.0
20/08:00am 15.5 14.8 11.5 77 2.2 NNE 6 7 3 4 1019.4 1019.3 0.0
20/07:30am 15.3 15.0 11.5 78 2.0 NNE 4 7 2 4 1019.2 1019.1 0.0
20/07:00am 15.2 13.9 11.2 77 2.1 NE 9 9 5 5 1018.8 1018.7 0.0
20/06:30am 14.8 13.5 11.4 80 1.8 NE 9 11 5 6 1018.5 1018.4 0.0
20/06:00am 14.4 12.7 11.2 81 1.7 NE 11 11 6 6 1018.3 1018.2 0.0
20/05:30am 14.8 13.5 11.2 79 1.9 ENE 9 11 5 6 1018.1 1018.0 0.0
20/05:00am 15.6 14.7 11.4 76 2.3 ENE 7 9 4 5 1018.0 1017.9 0.0
20/04:30am 15.7 14.6 10.0 69 3.0 ESE 6 7 3 4 1018.1 1018.0 0.0
20/04:00am 16.2 14.0 9.2 63 3.6 SSE 11 17 6 9 1018.1 1018.0 0.0
20/03:30am 16.2 15.0 11.6 74 2.5 ESE 9 11 5 6 1018.3 1018.2 0.0
20/03:00am 16.0 14.3 11.2 73 2.6 ESE 11 13 6 7 1018.5 1018.4 0.0
20/02:30am 16.8 15.5 11.3 70 3.0 SSE 9 13 5 7 1018.5 1018.4 0.0
20/02:00am 16.6 14.6 11.5 72 2.8 SSE 13 17 7 9 1018.5 1018.4 0.0
20/01:30am 16.0 14.6 11.0 72 2.7 ESE 9 11 5 6 1018.8 1018.7 0.0
20/01:00am 16.0 14.7 9.9 67 3.2 SE 7 11 4 6 1019.1 1019.0 0.0
20/12:30am 16.1 13.1 9.1 63 3.6 SSE 15 20 8 11 1019.4 1019.3 0.0
20/12:00am 16.3 14.1 9.3 63 3.6 SSE 11 17 6 9 1019.5 1019.4 0.0
 
Date/Time
CDT
Temp
°C
App
Temp
°C
Dew
Point
°C
Rel
Hum
%
Delta-T
°C
Wind Press
QNH
hPa
Press
MSL
hPa
Rain since
9am
mm
Dir  Spd
km/h
Gust
km/h
Spd
kts
Gust
kts
19/11:30pm 17.0 14.4 10.8 67 3.3 SE 15 20 8 11 1019.6 1019.5 0.0
19/11:00pm 16.3 14.2 9.7 65 3.4 S 11 17 6 9 1019.9 1019.8 0.0
19/10:30pm 17.2 13.9 9.6 61 4.0 SSE 17 26 9 14 1019.9 1019.8 0.0
19/10:00pm 16.5 14.1 10.1 66 3.4 S 13 19 7 10 1019.8 1019.7 0.0
19/09:30pm 15.5 13.6 10.5 72 2.6 S 11 15 6 8 1019.8 1019.7 0.0
19/09:00pm 16.0 13.8 10.7 71 2.8 S 13 17 7 9 1019.6 1019.5 0.0
19/08:30pm 16.5 13.5 10.6 68 3.1 S 17 20 9 11 1019.5 1019.4 0.0
19/08:00pm 17.3 13.8 10.2 63 3.8 SSW 19 24 10 13 1019.3 1019.2 0.0
19/07:30pm 18.0 14.1 9.6 58 4.4 SSW 20 26 11 14 1019.2 1019.1 0.0
19/07:00pm 18.6 14.4 9.7 56 4.7 SSW 22 30 12 16 1019.4 1019.3 0.0
19/06:30pm 19.2 14.5 9.4 53 5.2 SSW 24 33 13 18 1019.3 1019.2 0.0
19/06:00pm 18.8 14.1 9.3 54 5.0 SSW 24 30 13 16 1019.4 1019.3 0.0
19/05:30pm 19.8 14.9 8.5 48 5.9 SSW 24 32 13 17 1019.4 1019.3 0.0
19/05:00pm 19.1 15.2 9.6 54 5.0 SSW 20 28 11 15 1019.6 1019.5 0.0
19/04:30pm 19.7 15.5 9.6 52 5.4 SSW 22 33 12 18 1019.6 1019.5 0.0
19/04:00pm 19.5 15.4 10.2 55 5.0 SSW 22 32 12 17 1019.8 1019.7 0.0
19/03:30pm 19.6 16.2 11.1 58 4.6 S 20 28 11 15 1020.0 1019.9 0.0
19/03:00pm 19.3 15.3 10.3 56 4.8 SSW 22 28 12 15 1020.3 1020.2 0.0
19/02:30pm 20.4 15.8 9.6 50 5.7 SSW 24 32 13 17 1020.2 1020.1 0.0
19/02:00pm 20.5 16.4 10.0 51 5.7 SSW 22 32 12 17 1020.4 1020.3 0.0
19/01:30pm 20.2 16.5 10.0 52 5.5 SW 20 26 11 14 1020.6 1020.5 0.0
19/01:00pm 19.5 15.4 10.2 55 5.0 S 22 35 12 19 1020.8 1020.7 0.0
19/12:30pm 18.7 15.1 10.5 59 4.4 SSW 20 28 11 15 1021.1 1021.0 0.0
19/12:00pm 19.4 15.5 9.3 52 5.3 S 20 26 11 14 1021.2 1021.1 0.0
19/11:30am 19.6 16.0 10.6 56 4.9 S 20 30 11 16 1021.5 1021.4 0.0
19/11:00am 18.8 16.3 11.1 61 4.2 S 15 22 8 12 1021.8 1021.7 0.0
19/10:30am 18.3 14.9 10.4 60 4.2 SSE 19 26 10 14 1021.7 1021.6 0.0
19/10:00am 18.0 14.3 10.1 60 4.2 S 20 26 11 14 1021.5 1021.4 0.0
19/09:30am 17.9 14.1 9.0 56 4.6 S 19 22 10 12 1021.2 1021.1 0.0
19/09:00am 16.9 14.8 11.0 68 3.2 SSE 13 17 7 9 1021.1 1021.0 0.2
19/08:30am 17.0 14.4 9.4 61 3.9 S 13 17 7 9 1020.9 1020.8 0.2
19/08:00am 16.7 14.0 9.1 61 3.9 S 13 17 7 9 1020.7 1020.6 0.2
19/07:30am 15.5 13.3 8.0 61 3.8 S 9 11 5 6 1020.4 1020.3 0.2
19/07:00am 16.0 12.8 7.0 55 4.4 S 13 19 7 10 1020.1 1020.0 0.2
19/06:30am 16.0 13.6 8.7 62 3.7 SE 11 13 6 7 1020.0 1019.9 0.2
19/06:00am 16.5 13.6 8.2 58 4.2 S 13 19 7 10 1019.9 1019.8 0.2
19/05:30am 16.4 13.0 9.3 63 3.7 S 17 22 9 12 1020.0 1019.9 0.2
19/05:00am 16.5 12.6 9.4 63 3.7 S 20 26 11 14 1020.0 1019.9 0.2
19/04:30am 16.7 13.0 8.1 57 4.3 S 17 24 9 13 1019.8 1019.7 0.2
19/04:00am 16.5 12.2 7.2 54 4.6 S 19 24 10 13 1020.0 1019.9 0.2
19/03:30am 16.1 12.6 7.3 56 4.4 S 15 19 8 10 1020.0 1019.9 0.2
19/03:00am 15.7 11.4 7.0 56 4.3 S 19 26 10 14 1020.4 1020.3 0.2
19/02:30am 15.9 11.7 8.2 60 3.9 S 20 28 11 15 1020.7 1020.6 0.2
19/02:00am 16.0 11.9 8.5 61 3.8 S 20 28 11 15 1020.8 1020.7 0.2
19/01:30am 16.3 12.3 9.0 62 3.7 S 20 28 11 15 1020.9 1020.8 0.2
19/01:00am 16.4 12.6 9.8 65 3.5 S 20 28 11 15 1021.0 1020.9 0.2
19/12:30am 16.6 11.8 10.2 66 3.4 S 26 35 14 19 1021.4 1021.3 0.2
19/12:00am 16.4 12.2 11.1 71 2.8 S 24 32 13 17 1021.4 1021.3 0.2
 
Date/Time
CDT
Temp
°C
App
Temp
°C
Dew
Point
°C
Rel
Hum
%
Delta-T
°C
Wind Press
QNH
hPa
Press
MSL
hPa
Rain since
9am
mm
Dir  Spd
km/h
Gust
km/h
Spd
kts
Gust
kts
18/11:30pm 16.5 12.8 10.1 66 3.4 S 20 32 11 17 1021.4 1021.3 0.2
18/11:00pm 16.1 12.8 11.5 74 2.5 S 20 26 11 14 1021.5 1021.4 0.2
18/10:30pm 16.0 12.0 11.8 76 2.3 S 24 33 13 18 1021.5 1021.4 0.2
18/10:00pm 15.7 12.1 11.7 77 2.2 S 22 33 12 18 1021.2 1021.1 0.2
18/09:30pm 16.7 12.8 10.8 68 3.1 SSW 22 30 12 16 1021.0 1020.9 0.2
18/09:00pm 16.3 11.7 11.2 72 2.7 SSW 26 35 14 19 1020.9 1020.8 0.2
18/08:30pm 16.1 12.3 12.3 78 2.1 SSW 24 35 13 19 1020.8 1020.7 0.2
18/08:00pm 16.1 11.6 13.9 87 1.2 S 30 44 16 24 1020.5 1020.4 0.2
18/07:30pm 18.4 12.8 10.0 58 4.5 SSW 30 44 16 24 1020.0 1019.9 0.0
18/07:00pm 18.5 12.6 10.6 60 4.3 SSW 32 43 17 23 1019.8 1019.7 0.0
18/06:30pm 19.5 13.6 10.5 56 4.8 SSW 32 43 17 23 1019.6 1019.5 0.0

Other Formats:

Comma delimited format used in spreadsheet applications
http://www.bom.gov.au/fwo/IDS60801/IDS60801.94653.axf

JavaScript Object Notation format (JSON) in row-major order
http://www.bom.gov.au/fwo/IDS60801/IDS60801.94653.json